sensor_id;sensor_type;location;lat;lon;timestamp;temperature;humidity
1181;DHT22;579;52.046;8.532;2023-04-30T00:00:33;10.00;1.00
1181;DHT22;579;52.046;8.532;2023-04-30T00:03:00;10.10;1.00
1181;DHT22;579;52.046;8.532;2023-04-30T00:05:26;9.80;1.00
1181;DHT22;579;52.046;8.532;2023-04-30T00:07:53;9.70;1.00
1181;DHT22;579;52.046;8.532;2023-04-30T00:12:59;9.60;1.00
1181;DHT22;579;52.046;8.532;2023-04-30T00:15:26;9.40;1.00
1181;DHT22;579;52.046;8.532;2023-04-30T00:17:52;9.30;1.00
1181;DHT22;579;52.046;8.532;2023-04-30T00:20:19;9.20;1.00
1181;DHT22;579;52.046;8.532;2023-04-30T00:22:45;9.20;1.00
1181;DHT22;579;52.046;8.532;2023-04-30T00:25:12;9.30;1.00
1181;DHT22;579;52.046;8.532;2023-04-30T00:27:38;9.30;1.00
1181;DHT22;579;52.046;8.532;2023-04-30T00:34:11;9.20;1.00
1181;DHT22;579;52.046;8.532;2023-04-30T00:36:37;9.30;1.00
1181;DHT22;579;52.046;8.532;2023-04-30T00:39:04;9.20;1.00
1181;DHT22;579;52.046;8.532;2023-04-30T00:41:30;9.20;1.00
1181;DHT22;579;52.046;8.532;2023-04-30T00:43:57;9.10;1.00
1181;DHT22;579;52.046;8.532;2023-04-30T00:46:23;9.10;1.00
1181;DHT22;579;52.046;8.532;2023-04-30T00:48:50;9.20;1.00
1181;DHT22;579;52.046;8.532;2023-04-30T00:51:16;9.00;1.00
1181;DHT22;579;52.046;8.532;2023-04-30T00:58:49;8.90;1.00
1181;DHT22;579;52.046;8.532;2023-04-30T01:01:18;9.00;1.00
1181;DHT22;579;52.046;8.532;2023-04-30T01:03:45;9.10;1.00
1181;DHT22;579;52.046;8.532;2023-04-30T01:06:11;8.90;1.00
1181;DHT22;579;52.046;8.532;2023-04-30T01:08:38;9.00;1.00
1181;DHT22;579;52.046;8.532;2023-04-30T01:11:14;9.00;1.00
1181;DHT22;579;52.046;8.532;2023-04-30T01:13:51;8.80;1.00
1181;DHT22;579;52.046;8.532;2023-04-30T01:20:54;8.70;1.00
1181;DHT22;579;52.046;8.532;2023-04-30T01:23:32;8.80;1.00
1181;DHT22;579;52.046;8.532;2023-04-30T01:26:12;8.80;1.00
1181;DHT22;579;52.046;8.532;2023-04-30T01:28:42;8.80;1.00
1181;DHT22;579;52.046;8.532;2023-04-30T01:31:13;8.70;1.00
1181;DHT22;579;52.046;8.532;2023-04-30T01:33:39;8.70;1.00
1181;DHT22;579;52.046;8.532;2023-04-30T01:36:25;8.60;1.00
1181;DHT22;579;52.046;8.532;2023-04-30T01:44:23;8.60;1.00
1181;DHT22;579;52.046;8.532;2023-04-30T01:47:01;8.70;1.00
1181;DHT22;579;52.046;8.532;2023-04-30T01:49:40;8.80;1.00
1181;DHT22;579;52.046;8.532;2023-04-30T01:52:18;8.80;1.00
1181;DHT22;579;52.046;8.532;2023-04-30T01:57:42;8.80;1.00
1181;DHT22;579;52.046;8.532;2023-04-30T02:00:13;8.80;1.00
1181;DHT22;579;52.046;8.532;2023-04-30T02:03:09;8.80;1.00
1181;DHT22;579;52.046;8.532;2023-04-30T02:05:36;8.80;1.00
1181;DHT22;579;52.046;8.532;2023-04-30T02:08:02;8.80;1.00
1181;DHT22;579;52.046;8.532;2023-04-30T02:10:29;8.80;1.00
1181;DHT22;579;52.046;8.532;2023-04-30T02:12:55;9.00;1.00
1181;DHT22;579;52.046;8.532;2023-04-30T02:15:21;9.20;1.00
1181;DHT22;579;52.046;8.532;2023-04-30T02:17:48;9.10;1.00
1181;DHT22;579;52.046;8.532;2023-04-30T02:25:20;8.80;1.00
1181;DHT22;579;52.046;8.532;2023-04-30T02:27:46;8.50;1.00
1181;DHT22;579;52.046;8.532;2023-04-30T02:30:15;8.70;1.00
1181;DHT22;579;52.046;8.532;2023-04-30T02:32:41;8.60;1.00
1181;DHT22;579;52.046;8.532;2023-04-30T02:35:08;8.60;1.00
1181;DHT22;579;52.046;8.532;2023-04-30T02:37:34;8.40;1.00
1181;DHT22;579;52.046;8.532;2023-04-30T02:40:00;8.20;1.00
1181;DHT22;579;52.046;8.532;2023-04-30T02:46:58;8.10;1.00
1181;DHT22;579;52.046;8.532;2023-04-30T02:49:25;8.10;1.00
1181;DHT22;579;52.046;8.532;2023-04-30T02:51:52;8.20;1.00
1181;DHT22;579;52.046;8.532;2023-04-30T02:54:18;8.10;1.00
1181;DHT22;579;52.046;8.532;2023-04-30T02:56:45;7.90;1.00
1181;DHT22;579;52.046;8.532;2023-04-30T02:59:11;7.80;1.00
1181;DHT22;579;52.046;8.532;2023-04-30T03:01:38;7.90;1.00
1181;DHT22;579;52.046;8.532;2023-04-30T03:09:09;8.20;1.00
1181;DHT22;579;52.046;8.532;2023-04-30T03:11:36;8.00;1.00
1181;DHT22;579;52.046;8.532;2023-04-30T03:14:02;7.90;1.00
1181;DHT22;579;52.046;8.532;2023-04-30T03:16:29;7.70;1.00
1181;DHT22;579;52.046;8.532;2023-04-30T03:18:55;7.70;1.00
1181;DHT22;579;52.046;8.532;2023-04-30T03:21:22;7.70;1.00
1181;DHT22;579;52.046;8.532;2023-04-30T03:23:48;7.80;1.00
1181;DHT22;579;52.046;8.532;2023-04-30T03:28:54;7.80;1.00
1181;DHT22;579;52.046;8.532;2023-04-30T03:31:20;7.60;1.00
1181;DHT22;579;52.046;8.532;2023-04-30T03:33:46;7.50;1.00
1181;DHT22;579;52.046;8.532;2023-04-30T03:36:12;7.40;1.00
1181;DHT22;579;52.046;8.532;2023-04-30T03:38:39;7.50;1.00
1181;DHT22;579;52.046;8.532;2023-04-30T03:41:06;7.50;1.00
1181;DHT22;579;52.046;8.532;2023-04-30T03:43:33;7.70;1.00
1181;DHT22;579;52.046;8.532;2023-04-30T03:51:03;7.50;1.00
1181;DHT22;579;52.046;8.532;2023-04-30T03:53:29;7.60;1.00
1181;DHT22;579;52.046;8.532;2023-04-30T03:55:56;7.40;1.00
1181;DHT22;579;52.046;8.532;2023-04-30T03:58:22;7.40;1.00
1181;DHT22;579;52.046;8.532;2023-04-30T04:00:49;7.20;1.00
1181;DHT22;579;52.046;8.532;2023-04-30T04:03:15;7.20;1.00
1181;DHT22;579;52.046;8.532;2023-04-30T04:05:42;7.20;1.00
1181;DHT22;579;52.046;8.532;2023-04-30T04:15:09;7.10;1.00
1181;DHT22;579;52.046;8.532;2023-04-30T04:17:36;7.40;1.00
1181;DHT22;579;52.046;8.532;2023-04-30T04:20:03;7.40;1.00
1181;DHT22;579;52.046;8.532;2023-04-30T04:22:34;7.40;1.00
1181;DHT22;579;52.046;8.532;2023-04-30T04:25:00;7.50;1.00
1181;DHT22;579;52.046;8.532;2023-04-30T04:27:26;7.30;1.00
1181;DHT22;579;52.046;8.532;2023-04-30T04:29:53;7.20;1.00
1181;DHT22;579;52.046;8.532;2023-04-30T04:37:36;7.00;1.00
1181;DHT22;579;52.046;8.532;2023-04-30T04:40:02;7.00;1.00
1181;DHT22;579;52.046;8.532;2023-04-30T04:42:29;7.10;1.00
1181;DHT22;579;52.046;8.532;2023-04-30T04:44:56;7.40;1.00
1181;DHT22;579;52.046;8.532;2023-04-30T04:47:22;7.40;1.00
1181;DHT22;579;52.046;8.532;2023-04-30T04:49:49;7.30;1.00
1181;DHT22;579;52.046;8.532;2023-04-30T04:52:15;7.30;1.00
1181;DHT22;579;52.046;8.532;2023-04-30T04:59:46;7.30;1.00
1181;DHT22;579;52.046;8.532;2023-04-30T05:02:12;7.90;1.00
1181;DHT22;579;52.046;8.532;2023-04-30T05:04:38;7.80;1.00
1181;DHT22;579;52.046;8.532;2023-04-30T05:07:08;7.90;1.00
1181;DHT22;579;52.046;8.532;2023-04-30T05:09:35;7.60;1.00
1181;DHT22;579;52.046;8.532;2023-04-30T05:12:04;7.80;1.00
1181;DHT22;579;52.046;8.532;2023-04-30T05:14:31;8.00;1.00
1181;DHT22;579;52.046;8.532;2023-04-30T05:20:41;7.90;1.00
1181;DHT22;579;52.046;8.532;2023-04-30T05:23:07;8.00;1.00
1181;DHT22;579;52.046;8.532;2023-04-30T05:25:34;8.10;1.00
1181;DHT22;579;52.046;8.532;2023-04-30T05:28:01;8.20;1.00
1181;DHT22;579;52.046;8.532;2023-04-30T05:30:27;8.20;1.00
1181;DHT22;579;52.046;8.532;2023-04-30T05:32:54;8.20;1.00
1181;DHT22;579;52.046;8.532;2023-04-30T05:35:21;8.40;1.00
1181;DHT22;579;52.046;8.532;2023-04-30T05:42:24;8.50;1.00
1181;DHT22;579;52.046;8.532;2023-04-30T05:44:51;8.70;1.00
1181;DHT22;579;52.046;8.532;2023-04-30T05:47:17;8.80;1.00
1181;DHT22;579;52.046;8.532;2023-04-30T05:49:43;8.80;1.00
1181;DHT22;579;52.046;8.532;2023-04-30T05:52:10;9.00;1.00
1181;DHT22;579;52.046;8.532;2023-04-30T05:54:36;9.30;1.00
1181;DHT22;579;52.046;8.532;2023-04-30T05:57:03;9.20;1.00
1181;DHT22;579;52.046;8.532;2023-04-30T06:04:34;9.60;1.00
1181;DHT22;579;52.046;8.532;2023-04-30T06:07:01;9.90;1.00
1181;DHT22;579;52.046;8.532;2023-04-30T06:09:27;9.80;1.00
1181;DHT22;579;52.046;8.532;2023-04-30T06:11:54;10.10;1.00
1181;DHT22;579;52.046;8.532;2023-04-30T06:14:20;10.10;1.00
1181;DHT22;579;52.046;8.532;2023-04-30T06:16:48;10.20;1.00
1181;DHT22;579;52.046;8.532;2023-04-30T06:19:14;10.30;1.00
1181;DHT22;579;52.046;8.532;2023-04-30T06:24:20;10.50;1.00
1181;DHT22;579;52.046;8.532;2023-04-30T06:26:47;10.50;1.00
1181;DHT22;579;52.046;8.532;2023-04-30T06:29:13;10.10;1.00
1181;DHT22;579;52.046;8.532;2023-04-30T06:31:39;10.50;1.00
1181;DHT22;579;52.046;8.532;2023-04-30T06:34:06;10.70;1.00
1181;DHT22;579;52.046;8.532;2023-04-30T06:36:32;10.60;1.00
1181;DHT22;579;52.046;8.532;2023-04-30T06:38:58;11.00;1.00
1181;DHT22;579;52.046;8.532;2023-04-30T06:46:11;11.20;1.00
1181;DHT22;579;52.046;8.532;2023-04-30T06:48:39;11.30;1.00
1181;DHT22;579;52.046;8.532;2023-04-30T06:51:05;11.40;1.00
1181;DHT22;579;52.046;8.532;2023-04-30T06:53:31;11.40;1.00
1181;DHT22;579;52.046;8.532;2023-04-30T06:55:58;11.40;1.00
1181;DHT22;579;52.046;8.532;2023-04-30T06:58:25;11.50;1.00
1181;DHT22;579;52.046;8.532;2023-04-30T07:00:51;11.20;1.00
1181;DHT22;579;52.046;8.532;2023-04-30T07:05:52;11.60;1.00
1181;DHT22;579;52.046;8.532;2023-04-30T07:08:19;11.70;1.00
1181;DHT22;579;52.046;8.532;2023-04-30T07:10:46;12.00;1.00
1181;DHT22;579;52.046;8.532;2023-04-30T07:13:12;11.80;1.00
1181;DHT22;579;52.046;8.532;2023-04-30T07:15:39;11.80;1.00
1181;DHT22;579;52.046;8.532;2023-04-30T07:18:08;12.00;1.00
1181;DHT22;579;52.046;8.532;2023-04-30T07:20:34;12.20;1.00
1181;DHT22;579;52.046;8.532;2023-04-30T07:25:37;12.30;1.00
1181;DHT22;579;52.046;8.532;2023-04-30T07:28:07;12.40;1.00
1181;DHT22;579;52.046;8.532;2023-04-30T07:30:33;12.40;1.00
1181;DHT22;579;52.046;8.532;2023-04-30T07:33:00;14.50;1.00
1181;DHT22;579;52.046;8.532;2023-04-30T07:35:26;12.70;1.00
1181;DHT22;579;52.046;8.532;2023-04-30T07:37:52;12.80;1.00
1181;DHT22;579;52.046;8.532;2023-04-30T07:40:19;12.80;1.00
1181;DHT22;579;52.046;8.532;2023-04-30T07:47:11;12.90;1.00
1181;DHT22;579;52.046;8.532;2023-04-30T07:49:37;13.10;1.00
1181;DHT22;579;52.046;8.532;2023-04-30T07:52:04;13.00;1.00
1181;DHT22;579;52.046;8.532;2023-04-30T07:54:30;13.50;1.00
1181;DHT22;579;52.046;8.532;2023-04-30T07:57:01;13.80;1.00
1181;DHT22;579;52.046;8.532;2023-04-30T07:59:28;13.80;1.00
1181;DHT22;579;52.046;8.532;2023-04-30T08:01:54;13.80;1.00
1181;DHT22;579;52.046;8.532;2023-04-30T08:08:10;13.50;1.00
1181;DHT22;579;52.046;8.532;2023-04-30T08:10:36;13.90;1.00
1181;DHT22;579;52.046;8.532;2023-04-30T08:13:03;14.00;1.00
1181;DHT22;579;52.046;8.532;2023-04-30T08:15:30;14.10;1.00
1181;DHT22;579;52.046;8.532;2023-04-30T08:17:58;14.20;1.00
1181;DHT22;579;52.046;8.532;2023-04-30T08:20:24;14.40;1.00
1181;DHT22;579;52.046;8.532;2023-04-30T08:22:51;14.60;1.00
1181;DHT22;579;52.046;8.532;2023-04-30T08:27:57;14.70;1.00
1181;DHT22;579;52.046;8.532;2023-04-30T08:30:24;14.90;1.00
1181;DHT22;579;52.046;8.532;2023-04-30T08:32:50;15.00;1.00
1181;DHT22;579;52.046;8.532;2023-04-30T08:35:17;15.60;1.00
1181;DHT22;579;52.046;8.532;2023-04-30T08:37:43;15.70;1.00
1181;DHT22;579;52.046;8.532;2023-04-30T08:40:10;15.80;1.00
1181;DHT22;579;52.046;8.532;2023-04-30T08:42:40;16.10;1.00
1181;DHT22;579;52.046;8.532;2023-04-30T08:49:40;16.60;1.00
1181;DHT22;579;52.046;8.532;2023-04-30T08:52:07;16.80;1.00
1181;DHT22;579;52.046;8.532;2023-04-30T08:54:35;16.80;1.00
1181;DHT22;579;52.046;8.532;2023-04-30T08:57:01;17.10;1.00
1181;DHT22;579;52.046;8.532;2023-04-30T08:59:29;17.40;1.00
1181;DHT22;579;52.046;8.532;2023-04-30T09:01:55;17.70;1.00
1181;DHT22;579;52.046;8.532;2023-04-30T09:04:22;17.80;1.00
1181;DHT22;579;52.046;8.532;2023-04-30T09:09:28;17.90;1.00
1181;DHT22;579;52.046;8.532;2023-04-30T09:12:14;17.90;1.00
1181;DHT22;579;52.046;8.532;2023-04-30T09:14:57;17.90;1.00
1181;DHT22;579;52.046;8.532;2023-04-30T09:17:24;18.20;1.00
1181;DHT22;579;52.046;8.532;2023-04-30T09:19:51;18.30;1.00
1181;DHT22;579;52.046;8.532;2023-04-30T09:22:19;18.30;1.00
1181;DHT22;579;52.046;8.532;2023-04-30T09:24:48;18.20;1.00
1181;DHT22;579;52.046;8.532;2023-04-30T09:29:56;18.70;1.00
1181;DHT22;579;52.046;8.532;2023-04-30T09:32:22;18.80;1.00
1181;DHT22;579;52.046;8.532;2023-04-30T09:34:49;18.60;1.00
1181;DHT22;579;52.046;8.532;2023-04-30T09:37:16;18.50;1.00
1181;DHT22;579;52.046;8.532;2023-04-30T09:39:50;18.60;1.00
1181;DHT22;579;52.046;8.532;2023-04-30T09:42:17;18.90;1.00
1181;DHT22;579;52.046;8.532;2023-04-30T09:44:45;19.10;1.00
1181;DHT22;579;52.046;8.532;2023-04-30T09:51:53;19.30;1.00
1181;DHT22;579;52.046;8.532;2023-04-30T09:54:21;20.20;1.00
1181;DHT22;579;52.046;8.532;2023-04-30T09:56:51;20.50;1.00
1181;DHT22;579;52.046;8.532;2023-04-30T09:59:20;20.90;1.00
1181;DHT22;579;52.046;8.532;2023-04-30T10:01:48;21.20;1.00
1181;DHT22;579;52.046;8.532;2023-04-30T10:04:17;21.50;1.00
1181;DHT22;579;52.046;8.532;2023-04-30T10:06:45;21.60;1.00
1181;DHT22;579;52.046;8.532;2023-04-30T10:11:50;22.10;1.00
1181;DHT22;579;52.046;8.532;2023-04-30T10:14:18;22.00;1.00
1181;DHT22;579;52.046;8.532;2023-04-30T10:16:50;21.90;1.00
1181;DHT22;579;52.046;8.532;2023-04-30T10:19:19;21.90;1.00
1181;DHT22;579;52.046;8.532;2023-04-30T10:21:49;21.90;1.00
1181;DHT22;579;52.046;8.532;2023-04-30T10:24:16;21.90;1.00
1181;DHT22;579;52.046;8.532;2023-04-30T10:26:44;22.00;1.00
1181;DHT22;579;52.046;8.532;2023-04-30T10:30:05;22.00;1.00
1181;DHT22;579;52.046;8.532;2023-04-30T10:32:37;21.80;1.00
1181;DHT22;579;52.046;8.532;2023-04-30T10:35:14;21.40;1.00
1181;DHT22;579;52.046;8.532;2023-04-30T10:37:46;21.00;1.00
1181;DHT22;579;52.046;8.532;2023-04-30T10:40:14;20.70;1.00
1181;DHT22;579;52.046;8.532;2023-04-30T10:42:44;20.10;1.00
1181;DHT22;579;52.046;8.532;2023-04-30T10:45:13;19.60;1.00
1181;DHT22;579;52.046;8.532;2023-04-30T10:47:55;19.40;1.00
1181;DHT22;579;52.046;8.532;2023-04-30T10:50:22;19.80;1.00
1181;DHT22;579;52.046;8.532;2023-04-30T10:53:00;19.60;1.00
1181;DHT22;579;52.046;8.532;2023-04-30T10:55:29;19.40;1.00
1181;DHT22;579;52.046;8.532;2023-04-30T10:57:57;19.50;1.00
1181;DHT22;579;52.046;8.532;2023-04-30T11:00:25;19.70;1.00
1181;DHT22;579;52.046;8.532;2023-04-30T11:02:56;19.90;1.00
1181;DHT22;579;52.046;8.532;2023-04-30T11:09:12;20.10;1.00
1181;DHT22;579;52.046;8.532;2023-04-30T11:11:38;20.00;1.00
1181;DHT22;579;52.046;8.532;2023-04-30T11:14:05;20.00;1.00
1181;DHT22;579;52.046;8.532;2023-04-30T11:16:34;20.20;1.00
1181;DHT22;579;52.046;8.532;2023-04-30T11:19:09;20.60;1.00
1181;DHT22;579;52.046;8.532;2023-04-30T11:21:39;20.80;1.00
1181;DHT22;579;52.046;8.532;2023-04-30T11:24:06;21.70;1.00
1181;DHT22;579;52.046;8.532;2023-04-30T11:31:11;23.50;1.00
1181;DHT22;579;52.046;8.532;2023-04-30T11:33:39;25.10;1.00
1181;DHT22;579;52.046;8.532;2023-04-30T11:36:06;25.90;1.00
1181;DHT22;579;52.046;8.532;2023-04-30T11:38:34;26.70;1.00
1181;DHT22;579;52.046;8.532;2023-04-30T11:41:01;27.00;1.00
1181;DHT22;579;52.046;8.532;2023-04-30T11:43:30;27.30;1.00
1181;DHT22;579;52.046;8.532;2023-04-30T11:49:25;27.80;1.00
1181;DHT22;579;52.046;8.532;2023-04-30T11:51:52;28.00;1.00
1181;DHT22;579;52.046;8.532;2023-04-30T11:54:18;28.20;1.00
1181;DHT22;579;52.046;8.532;2023-04-30T11:56:45;27.80;1.00
1181;DHT22;579;52.046;8.532;2023-04-30T11:59:13;27.40;1.00
1181;DHT22;579;52.046;8.532;2023-04-30T12:01:40;27.20;1.00
1181;DHT22;579;52.046;8.532;2023-04-30T12:04:07;26.70;1.00
1181;DHT22;579;52.046;8.532;2023-04-30T12:11:19;26.80;1.00
1181;DHT22;579;52.046;8.532;2023-04-30T12:13:50;26.50;1.00
1181;DHT22;579;52.046;8.532;2023-04-30T12:16:17;26.80;1.00
1181;DHT22;579;52.046;8.532;2023-04-30T12:18:44;26.80;1.00
1181;DHT22;579;52.046;8.532;2023-04-30T12:21:10;26.60;1.00
1181;DHT22;579;52.046;8.532;2023-04-30T12:23:37;26.20;1.00
1181;DHT22;579;52.046;8.532;2023-04-30T12:26:03;25.90;1.00
1181;DHT22;579;52.046;8.532;2023-04-30T12:33:33;26.10;1.00
1181;DHT22;579;52.046;8.532;2023-04-30T12:36:01;26.40;1.00
1181;DHT22;579;52.046;8.532;2023-04-30T12:38:28;26.60;1.00
1181;DHT22;579;52.046;8.532;2023-04-30T12:40:55;26.80;1.00
1181;DHT22;579;52.046;8.532;2023-04-30T12:43:22;27.90;1.00
1181;DHT22;579;52.046;8.532;2023-04-30T12:45:49;28.70;1.00
1181;DHT22;579;52.046;8.532;2023-04-30T12:48:18;28.40;1.00
1181;DHT22;579;52.046;8.532;2023-04-30T12:54:43;31.10;1.00
1181;DHT22;579;52.046;8.532;2023-04-30T12:57:11;27.60;1.00
1181;DHT22;579;52.046;8.532;2023-04-30T12:59:39;27.50;1.00
1181;DHT22;579;52.046;8.532;2023-04-30T13:02:27;27.90;1.00
1181;DHT22;579;52.046;8.532;2023-04-30T13:04:56;27.90;1.00
1181;DHT22;579;52.046;8.532;2023-04-30T13:07:23;28.00;1.00
1181;DHT22;579;52.046;8.532;2023-04-30T13:09:50;28.50;1.00
1181;DHT22;579;52.046;8.532;2023-04-30T13:15:07;28.90;1.00
1181;DHT22;579;52.046;8.532;2023-04-30T13:17:34;28.60;1.00
1181;DHT22;579;52.046;8.532;2023-04-30T13:20:01;27.90;1.00
1181;DHT22;579;52.046;8.532;2023-04-30T13:22:27;27.60;1.00
1181;DHT22;579;52.046;8.532;2023-04-30T13:24:54;27.80;1.00
1181;DHT22;579;52.046;8.532;2023-04-30T13:27:20;27.70;1.00
1181;DHT22;579;52.046;8.532;2023-04-30T13:29:47;27.20;1.00
1181;DHT22;579;52.046;8.532;2023-04-30T13:37:11;28.10;1.00
1181;DHT22;579;52.046;8.532;2023-04-30T13:39:38;30.70;1.00
1181;DHT22;579;52.046;8.532;2023-04-30T13:42:04;31.80;1.00
1181;DHT22;579;52.046;8.532;2023-04-30T13:44:31;32.40;1.00
1181;DHT22;579;52.046;8.532;2023-04-30T13:46:58;33.10;1.00
1181;DHT22;579;52.046;8.532;2023-04-30T13:49:24;34.20;1.00
1181;DHT22;579;52.046;8.532;2023-04-30T13:51:51;34.30;1.00
1181;DHT22;579;52.046;8.532;2023-04-30T13:59:18;34.00;1.00
1181;DHT22;579;52.046;8.532;2023-04-30T14:01:44;33.00;1.00
1181;DHT22;579;52.046;8.532;2023-04-30T14:04:11;32.40;1.00
1181;DHT22;579;52.046;8.532;2023-04-30T14:06:38;32.00;1.00
1181;DHT22;579;52.046;8.532;2023-04-30T14:09:05;32.40;1.00
1181;DHT22;579;52.046;8.532;2023-04-30T14:11:31;32.70;1.00
1181;DHT22;579;52.046;8.532;2023-04-30T14:13:57;32.90;1.00
1181;DHT22;579;52.046;8.532;2023-04-30T14:21:28;33.70;1.00
1181;DHT22;579;52.046;8.532;2023-04-30T14:23:54;36.00;1.00
1181;DHT22;579;52.046;8.532;2023-04-30T14:26:20;35.80;1.00
1181;DHT22;579;52.046;8.532;2023-04-30T14:28:47;35.90;1.00
1181;DHT22;579;52.046;8.532;2023-04-30T14:31:13;36.80;1.00
1181;DHT22;579;52.046;8.532;2023-04-30T14:33:39;36.70;1.00
1181;DHT22;579;52.046;8.532;2023-04-30T14:36:06;37.00;1.00
1181;DHT22;579;52.046;8.532;2023-04-30T14:42:56;36.90;1.00
1181;DHT22;579;52.046;8.532;2023-04-30T14:45:23;37.60;1.00
1181;DHT22;579;52.046;8.532;2023-04-30T14:47:52;38.40;1.00
1181;DHT22;579;52.046;8.532;2023-04-30T14:50:19;38.50;1.00
1181;DHT22;579;52.046;8.532;2023-04-30T14:52:45;39.00;1.00
1181;DHT22;579;52.046;8.532;2023-04-30T14:55:11;39.10;1.00
1181;DHT22;579;52.046;8.532;2023-04-30T14:57:38;39.30;1.00
1181;DHT22;579;52.046;8.532;2023-04-30T15:03:43;38.80;1.00
1181;DHT22;579;52.046;8.532;2023-04-30T15:06:09;39.00;1.00
1181;DHT22;579;52.046;8.532;2023-04-30T15:08:35;39.30;1.00
1181;DHT22;579;52.046;8.532;2023-04-30T15:11:02;39.80;1.00
1181;DHT22;579;52.046;8.532;2023-04-30T15:13:31;39.80;99.90
1181;DHT22;579;52.046;8.532;2023-04-30T15:15:58;40.10;99.90
1181;DHT22;579;52.046;8.532;2023-04-30T15:18:24;39.90;99.90
1181;DHT22;579;52.046;8.532;2023-04-30T15:25:54;39.40;99.90
1181;DHT22;579;52.046;8.532;2023-04-30T15:28:21;39.80;99.90
1181;DHT22;579;52.046;8.532;2023-04-30T15:30:49;39.60;99.90
1181;DHT22;579;52.046;8.532;2023-04-30T15:33:16;39.40;99.90
1181;DHT22;579;52.046;8.532;2023-04-30T15:35:43;38.60;99.90
1181;DHT22;579;52.046;8.532;2023-04-30T15:38:10;36.90;99.90
1181;DHT22;579;52.046;8.532;2023-04-30T15:40:36;35.50;99.90
1181;DHT22;579;52.046;8.532;2023-04-30T15:48:08;29.00;1.00
1181;DHT22;579;52.046;8.532;2023-04-30T15:50:34;27.80;1.00
1181;DHT22;579;52.046;8.532;2023-04-30T15:53:00;26.40;1.00
1181;DHT22;579;52.046;8.532;2023-04-30T15:55:27;25.70;1.00
1181;DHT22;579;52.046;8.532;2023-04-30T15:57:53;25.10;1.00
1181;DHT22;579;52.046;8.532;2023-04-30T16:00:20;24.30;1.00
1181;DHT22;579;52.046;8.532;2023-04-30T16:02:47;23.90;1.00
1181;DHT22;579;52.046;8.532;2023-04-30T16:10:18;22.90;1.00
1181;DHT22;579;52.046;8.532;2023-04-30T16:12:44;22.20;1.00
1181;DHT22;579;52.046;8.532;2023-04-30T16:15:11;21.80;1.00
1181;DHT22;579;52.046;8.532;2023-04-30T16:17:37;21.90;1.00
1181;DHT22;579;52.046;8.532;2023-04-30T16:20:04;21.70;1.00
1181;DHT22;579;52.046;8.532;2023-04-30T16:22:32;21.60;1.00
1181;DHT22;579;52.046;8.532;2023-04-30T16:24:59;21.30;1.00
1181;DHT22;579;52.046;8.532;2023-04-30T16:32:12;20.80;1.00
1181;DHT22;579;52.046;8.532;2023-04-30T16:34:38;20.70;1.00
1181;DHT22;579;52.046;8.532;2023-04-30T16:37:05;20.60;1.00
1181;DHT22;579;52.046;8.532;2023-04-30T16:39:31;20.60;1.00
1181;DHT22;579;52.046;8.532;2023-04-30T16:41:57;20.50;1.00
1181;DHT22;579;52.046;8.532;2023-04-30T16:44:23;20.50;1.00
1181;DHT22;579;52.046;8.532;2023-04-30T16:46:50;20.20;1.00
1181;DHT22;579;52.046;8.532;2023-04-30T16:54:13;20.10;1.00
1181;DHT22;579;52.046;8.532;2023-04-30T16:56:39;20.00;1.00
1181;DHT22;579;52.046;8.532;2023-04-30T16:59:05;19.80;1.00
1181;DHT22;579;52.046;8.532;2023-04-30T17:01:32;19.60;1.00
1181;DHT22;579;52.046;8.532;2023-04-30T17:03:58;19.60;1.00
1181;DHT22;579;52.046;8.532;2023-04-30T17:06:24;19.80;1.00
1181;DHT22;579;52.046;8.532;2023-04-30T17:08:50;19.50;1.00
1181;DHT22;579;52.046;8.532;2023-04-30T17:16:23;19.30;1.00
1181;DHT22;579;52.046;8.532;2023-04-30T17:18:49;19.20;1.00
1181;DHT22;579;52.046;8.532;2023-04-30T17:21:15;19.20;1.00
1181;DHT22;579;52.046;8.532;2023-04-30T17:23:42;19.00;1.00
1181;DHT22;579;52.046;8.532;2023-04-30T17:26:08;19.10;1.00
1181;DHT22;579;52.046;8.532;2023-04-30T17:28:35;19.30;1.00
1181;DHT22;579;52.046;8.532;2023-04-30T17:31:02;18.90;1.00
1181;DHT22;579;52.046;8.532;2023-04-30T17:36:11;18.80;1.00
1181;DHT22;579;52.046;8.532;2023-04-30T17:38:37;18.70;1.00
1181;DHT22;579;52.046;8.532;2023-04-30T17:41:04;18.60;1.00
1181;DHT22;579;52.046;8.532;2023-04-30T17:43:31;18.80;1.00
1181;DHT22;579;52.046;8.532;2023-04-30T17:45:57;18.80;1.00
1181;DHT22;579;52.046;8.532;2023-04-30T17:48:23;18.70;1.00
1181;DHT22;579;52.046;8.532;2023-04-30T17:50:50;18.90;1.00
1181;DHT22;579;52.046;8.532;2023-04-30T17:58:13;18.60;1.00
1181;DHT22;579;52.046;8.532;2023-04-30T18:00:40;18.50;1.00
1181;DHT22;579;52.046;8.532;2023-04-30T18:03:07;18.40;1.00
1181;DHT22;579;52.046;8.532;2023-04-30T18:05:34;18.20;1.00
1181;DHT22;579;52.046;8.532;2023-04-30T18:08:00;18.10;1.00
1181;DHT22;579;52.046;8.532;2023-04-30T18:10:27;18.30;1.00
1181;DHT22;579;52.046;8.532;2023-04-30T18:12:57;18.10;1.00
1181;DHT22;579;52.046;8.532;2023-04-30T18:19:13;18.10;1.00
1181;DHT22;579;52.046;8.532;2023-04-30T18:21:39;17.90;1.00
1181;DHT22;579;52.046;8.532;2023-04-30T18:24:06;18.00;1.00
1181;DHT22;579;52.046;8.532;2023-04-30T18:26:32;17.90;1.00
1181;DHT22;579;52.046;8.532;2023-04-30T18:28:58;17.90;1.00
1181;DHT22;579;52.046;8.532;2023-04-30T18:31:25;17.70;1.00
1181;DHT22;579;52.046;8.532;2023-04-30T18:33:53;17.60;1.00
1181;DHT22;579;52.046;8.532;2023-04-30T18:40:41;17.40;1.00
1181;DHT22;579;52.046;8.532;2023-04-30T18:43:07;17.20;1.00
1181;DHT22;579;52.046;8.532;2023-04-30T18:45:34;16.90;1.00
1181;DHT22;579;52.046;8.532;2023-04-30T18:48:01;16.80;1.00
1181;DHT22;579;52.046;8.532;2023-04-30T18:50:27;16.60;1.00
1181;DHT22;579;52.046;8.532;2023-04-30T18:52:53;16.60;1.00
1181;DHT22;579;52.046;8.532;2023-04-30T18:55:19;16.50;1.00
1181;DHT22;579;52.046;8.532;2023-04-30T19:02:51;15.80;1.00
1181;DHT22;579;52.046;8.532;2023-04-30T19:05:18;15.80;1.00
1181;DHT22;579;52.046;8.532;2023-04-30T19:07:44;15.50;1.00
1181;DHT22;579;52.046;8.532;2023-04-30T19:10:11;15.20;1.00
1181;DHT22;579;52.046;8.532;2023-04-30T19:12:38;15.20;1.00
1181;DHT22;579;52.046;8.532;2023-04-30T19:15:05;15.00;1.00
1181;DHT22;579;52.046;8.532;2023-04-30T19:17:32;14.90;1.00
1181;DHT22;579;52.046;8.532;2023-04-30T19:25:04;14.90;1.00
1181;DHT22;579;52.046;8.532;2023-04-30T19:27:31;14.80;1.00
1181;DHT22;579;52.046;8.532;2023-04-30T19:29:57;14.80;1.00
1181;DHT22;579;52.046;8.532;2023-04-30T19:32:23;14.60;1.00
1181;DHT22;579;52.046;8.532;2023-04-30T19:34:50;14.50;1.00
1181;DHT22;579;52.046;8.532;2023-04-30T19:37:17;14.40;1.00
1181;DHT22;579;52.046;8.532;2023-04-30T19:39:43;14.20;1.00
1181;DHT22;579;52.046;8.532;2023-04-30T19:46:29;14.10;1.00
1181;DHT22;579;52.046;8.532;2023-04-30T19:48:56;14.10;1.00
1181;DHT22;579;52.046;8.532;2023-04-30T19:51:22;13.90;1.00
1181;DHT22;579;52.046;8.532;2023-04-30T19:53:48;13.80;1.00
1181;DHT22;579;52.046;8.532;2023-04-30T19:56:14;13.60;1.00
1181;DHT22;579;52.046;8.532;2023-04-30T19:58:41;13.70;1.00
1181;DHT22;579;52.046;8.532;2023-04-30T20:01:08;13.60;1.00
1181;DHT22;579;52.046;8.532;2023-04-30T20:08:37;13.60;1.00
1181;DHT22;579;52.046;8.532;2023-04-30T20:11:03;13.40;1.00
1181;DHT22;579;52.046;8.532;2023-04-30T20:13:29;13.30;1.00
1181;DHT22;579;52.046;8.532;2023-04-30T20:15:56;13.30;1.00
1181;DHT22;579;52.046;8.532;2023-04-30T20:18:22;13.40;1.00
1181;DHT22;579;52.046;8.532;2023-04-30T20:20:48;13.20;1.00
1181;DHT22;579;52.046;8.532;2023-04-30T20:23:16;13.20;1.00
1181;DHT22;579;52.046;8.532;2023-04-30T20:30:47;13.20;1.00
1181;DHT22;579;52.046;8.532;2023-04-30T20:33:14;12.90;1.00
1181;DHT22;579;52.046;8.532;2023-04-30T20:35:40;12.60;1.00
1181;DHT22;579;52.046;8.532;2023-04-30T20:38:08;12.60;1.00
1181;DHT22;579;52.046;8.532;2023-04-30T20:40:35;12.60;1.00